sensor_id;sensor_type;location;lat;lon;timestamp;pressure;altitude;pressure_sealevel;temperature;humidity
48862;BME280;34681;49.188;-0.374;2022-12-16T00:01:05;100941.63;;;3.78;nan
48862;BME280;34681;49.188;-0.374;2022-12-16T00:03:31;100937.28;;;3.76;nan
48862;BME280;34681;49.188;-0.374;2022-12-16T00:05:56;100944.66;;;3.74;nan
48862;BME280;34681;49.188;-0.374;2022-12-16T00:08:22;100934.47;;;3.77;nan
48862;BME280;34681;49.188;-0.374;2022-12-16T00:10:47;100946.16;;;3.78;nan
48862;BME280;34681;49.188;-0.374;2022-12-16T00:13:19;100946.53;;;3.86;nan
48862;BME280;34681;49.188;-0.374;2022-12-16T00:15:44;100945.78;;;3.84;nan
48862;BME280;34681;49.188;-0.374;2022-12-16T00:18:12;100956.81;;;3.81;nan
48862;BME280;34681;49.188;-0.374;2022-12-16T00:20:49;100949.94;;;3.89;nan
48862;BME280;34681;49.188;-0.374;2022-12-16T00:23:15;100951.97;;;3.86;nan
48862;BME280;34681;49.188;-0.374;2022-12-16T00:25:42;100953.78;;;4.00;nan
48862;BME280;34681;49.188;-0.374;2022-12-16T00:28:09;100953.84;;;4.12;nan
48862;BME280;34681;49.188;-0.374;2022-12-16T00:30:35;100952.56;;;4.18;nan
48862;BME280;34681;49.188;-0.374;2022-12-16T00:33:00;100955.69;;;4.12;nan
48862;BME280;34681;49.188;-0.374;2022-12-16T00:35:26;100945.72;;;4.12;nan
48862;BME280;34681;49.188;-0.374;2022-12-16T00:37:51;100960.19;;;4.26;nan
48862;BME280;34681;49.188;-0.374;2022-12-16T00:40:16;100955.88;;;4.23;nan
48862;BME280;34681;49.188;-0.374;2022-12-16T00:42:41;100952.38;;;4.21;nan
48862;BME280;34681;49.188;-0.374;2022-12-16T00:45:07;100953.16;;;4.23;nan
48862;BME280;34681;49.188;-0.374;2022-12-16T00:47:33;100946.41;;;4.16;nan
48862;BME280;34681;49.188;-0.374;2022-12-16T00:49:58;100951.84;;;4.02;nan
48862;BME280;34681;49.188;-0.374;2022-12-16T00:52:23;100953.09;;;3.96;nan
48862;BME280;34681;49.188;-0.374;2022-12-16T00:54:49;100951.06;;;4.00;nan
48862;BME280;34681;49.188;-0.374;2022-12-16T00:57:14;100954.28;;;3.92;nan
48862;BME280;34681;49.188;-0.374;2022-12-16T00:59:39;100955.75;;;3.83;nan
48862;BME280;34681;49.188;-0.374;2022-12-16T01:02:05;100958.56;;;3.82;nan
48862;BME280;34681;49.188;-0.374;2022-12-16T01:04:30;100964.47;;;3.74;nan
48862;BME280;34681;49.188;-0.374;2022-12-16T01:06:55;100967.28;;;2.70;nan
48862;BME280;34681;49.188;-0.374;2022-12-16T01:09:21;100974.00;;;3.23;nan
48862;BME280;34681;49.188;-0.374;2022-12-16T01:11:46;100967.75;;;3.65;nan
48862;BME280;34681;49.188;-0.374;2022-12-16T01:14:11;100976.44;;;3.84;nan
48862;BME280;34681;49.188;-0.374;2022-12-16T01:16:37;100985.22;;;3.88;nan
48862;BME280;34681;49.188;-0.374;2022-12-16T01:19:02;100981.72;;;4.00;nan
48862;BME280;34681;49.188;-0.374;2022-12-16T01:21:28;100976.69;;;3.94;nan
48862;BME280;34681;49.188;-0.374;2022-12-16T01:23:53;100974.75;;;3.96;nan
48862;BME280;34681;49.188;-0.374;2022-12-16T01:26:19;100983.28;;;3.90;nan
48862;BME280;34681;49.188;-0.374;2022-12-16T01:28:46;100990.44;;;3.91;nan
48862;BME280;34681;49.188;-0.374;2022-12-16T01:31:14;100986.28;;;4.00;nan
48862;BME280;34681;49.188;-0.374;2022-12-16T01:33:40;100982.81;;;3.98;nan
48862;BME280;34681;49.188;-0.374;2022-12-16T01:36:07;100990.72;;;4.01;nan
48862;BME280;34681;49.188;-0.374;2022-12-16T01:38:33;100996.41;;;3.96;nan
48862;BME280;34681;49.188;-0.374;2022-12-16T01:40:59;100995.09;;;3.89;nan
48862;BME280;34681;49.188;-0.374;2022-12-16T01:43:28;100995.16;;;3.87;nan
48862;BME280;34681;49.188;-0.374;2022-12-16T01:45:59;101001.06;;;3.80;nan
48862;BME280;34681;49.188;-0.374;2022-12-16T01:48:49;101009.88;;;3.83;nan
48862;BME280;34681;49.188;-0.374;2022-12-16T01:53:45;101018.19;;;3.80;nan
48862;BME280;34681;49.188;-0.374;2022-12-16T01:56:14;101021.09;;;3.77;nan
48862;BME280;34681;49.188;-0.374;2022-12-16T01:58:41;101016.75;;;3.75;nan
48862;BME280;34681;49.188;-0.374;2022-12-16T02:01:07;101017.03;;;3.70;nan
48862;BME280;34681;49.188;-0.374;2022-12-16T02:03:35;101023.13;;;3.59;nan
48862;BME280;34681;49.188;-0.374;2022-12-16T02:06:03;101024.94;;;3.59;nan
48862;BME280;34681;49.188;-0.374;2022-12-16T02:08:29;101031.81;;;3.50;nan
48862;BME280;34681;49.188;-0.374;2022-12-16T02:11:10;101038.19;;;3.49;nan
48862;BME280;34681;49.188;-0.374;2022-12-16T02:16:51;101047.44;;;3.45;nan
48862;BME280;34681;49.188;-0.374;2022-12-16T02:19:49;101051.00;;;3.46;nan
48862;BME280;34681;49.188;-0.374;2022-12-16T02:25:42;101058.47;;;3.42;nan
48862;BME280;34681;49.188;-0.374;2022-12-16T02:36:30;101063.72;;;3.59;nan
48862;BME280;34681;49.188;-0.374;2022-12-16T02:44:03;101068.75;;;3.65;nan
48862;BME280;34681;49.188;-0.374;2022-12-16T02:46:31;101071.63;;;3.62;nan
48862;BME280;34681;49.188;-0.374;2022-12-16T02:51:54;101074.72;;;3.71;nan
48862;BME280;34681;49.188;-0.374;2022-12-16T02:54:20;101075.59;;;3.71;nan
48862;BME280;34681;49.188;-0.374;2022-12-16T02:57:15;101072.31;;;3.80;nan
48862;BME280;34681;49.188;-0.374;2022-12-16T03:05:15;101089.28;;;3.98;nan
48862;BME280;34681;49.188;-0.374;2022-12-16T03:07:43;101085.88;;;3.94;nan
48862;BME280;34681;49.188;-0.374;2022-12-16T03:10:15;101088.69;;;3.93;nan
48862;BME280;34681;49.188;-0.374;2022-12-16T03:12:43;101092.56;;;3.89;nan
48862;BME280;34681;49.188;-0.374;2022-12-16T03:15:11;101098.34;;;3.83;nan
48862;BME280;34681;49.188;-0.374;2022-12-16T03:17:38;101099.88;;;3.87;nan
48862;BME280;34681;49.188;-0.374;2022-12-16T03:20:14;101095.81;;;3.94;nan
48862;BME280;34681;49.188;-0.374;2022-12-16T03:22:43;101099.41;;;3.94;nan
48862;BME280;34681;49.188;-0.374;2022-12-16T03:25:10;101102.41;;;3.90;nan
48862;BME280;34681;49.188;-0.374;2022-12-16T03:28:05;101107.03;;;3.88;nan
48862;BME280;34681;49.188;-0.374;2022-12-16T03:30:39;101106.72;;;3.78;nan
48862;BME280;34681;49.188;-0.374;2022-12-16T03:33:16;101114.84;;;3.78;nan
48862;BME280;34681;49.188;-0.374;2022-12-16T03:35:53;101114.19;;;3.75;nan
48862;BME280;34681;49.188;-0.374;2022-12-16T03:38:21;101111.38;;;3.76;nan
48862;BME280;34681;49.188;-0.374;2022-12-16T03:40:48;101109.66;;;3.75;nan
48862;BME280;34681;49.188;-0.374;2022-12-16T03:43:15;101116.78;;;3.76;nan
48862;BME280;34681;49.188;-0.374;2022-12-16T03:45:43;101124.47;;;3.54;nan
48862;BME280;34681;49.188;-0.374;2022-12-16T03:48:11;101117.00;;;3.73;nan
48862;BME280;34681;49.188;-0.374;2022-12-16T03:50:37;101116.91;;;3.75;nan
48862;BME280;34681;49.188;-0.374;2022-12-16T03:53:04;101119.69;;;3.73;nan
48862;BME280;34681;49.188;-0.374;2022-12-16T03:55:30;101120.72;;;3.71;nan
48862;BME280;34681;49.188;-0.374;2022-12-16T03:57:56;101123.34;;;3.58;nan
48862;BME280;34681;49.188;-0.374;2022-12-16T04:00:21;101133.69;;;3.65;nan
48862;BME280;34681;49.188;-0.374;2022-12-16T04:02:46;101127.94;;;3.42;nan
48862;BME280;34681;49.188;-0.374;2022-12-16T04:05:12;101128.47;;;3.32;nan
48862;BME280;34681;49.188;-0.374;2022-12-16T04:07:37;101135.44;;;3.36;nan
48862;BME280;34681;49.188;-0.374;2022-12-16T04:10:04;101132.13;;;2.86;nan
48862;BME280;34681;49.188;-0.374;2022-12-16T04:12:29;101131.25;;;3.31;nan
48862;BME280;34681;49.188;-0.374;2022-12-16T04:15:13;101138.84;;;3.40;nan
48862;BME280;34681;49.188;-0.374;2022-12-16T04:17:58;101135.88;;;3.29;nan
48862;BME280;34681;49.188;-0.374;2022-12-16T04:20:44;101140.75;;;2.92;nan
48862;BME280;34681;49.188;-0.374;2022-12-16T04:23:31;101150.41;;;3.12;nan
48862;BME280;34681;49.188;-0.374;2022-12-16T04:26:17;101148.88;;;3.22;nan
48862;BME280;34681;49.188;-0.374;2022-12-16T04:28:42;101155.84;;;3.42;nan
48862;BME280;34681;49.188;-0.374;2022-12-16T04:31:08;101159.25;;;3.30;nan
48862;BME280;34681;49.188;-0.374;2022-12-16T04:33:34;101157.09;;;3.21;nan
48862;BME280;34681;49.188;-0.374;2022-12-16T04:36:18;101150.41;;;3.12;nan
48862;BME280;34681;49.188;-0.374;2022-12-16T04:39:02;101168.44;;;3.27;nan
48862;BME280;34681;49.188;-0.374;2022-12-16T04:41:46;101157.53;;;3.29;nan
48862;BME280;34681;49.188;-0.374;2022-12-16T04:44:30;101152.00;;;3.30;nan
48862;BME280;34681;49.188;-0.374;2022-12-16T04:47:14;101155.94;;;3.41;nan
48862;BME280;34681;49.188;-0.374;2022-12-16T04:49:58;101162.81;;;3.46;nan
48862;BME280;34681;49.188;-0.374;2022-12-16T04:52:42;101163.78;;;3.45;nan
48862;BME280;34681;49.188;-0.374;2022-12-16T04:55:26;101153.81;;;3.46;nan
48862;BME280;34681;49.188;-0.374;2022-12-16T04:58:10;101160.56;;;3.38;nan
48862;BME280;34681;49.188;-0.374;2022-12-16T05:00:54;101152.63;;;3.35;nan
48862;BME280;34681;49.188;-0.374;2022-12-16T05:03:38;101159.44;;;3.27;nan
48862;BME280;34681;49.188;-0.374;2022-12-16T05:06:22;101158.78;;;3.23;nan
48862;BME280;34681;49.188;-0.374;2022-12-16T05:09:06;101163.22;;;3.24;nan
48862;BME280;34681;49.188;-0.374;2022-12-16T05:11:50;101169.31;;;3.28;nan
48862;BME280;34681;49.188;-0.374;2022-12-16T05:14:34;101168.34;;;3.29;nan
48862;BME280;34681;49.188;-0.374;2022-12-16T05:17:18;101162.25;;;3.25;nan
48862;BME280;34681;49.188;-0.374;2022-12-16T05:20:03;101164.09;;;3.25;nan
48862;BME280;34681;49.188;-0.374;2022-12-16T05:22:47;101167.34;;;3.16;nan
48862;BME280;34681;49.188;-0.374;2022-12-16T05:25:31;101171.88;;;3.15;nan
48862;BME280;34681;49.188;-0.374;2022-12-16T05:28:15;101173.00;;;3.11;nan
48862;BME280;34681;49.188;-0.374;2022-12-16T05:30:59;101177.72;;;3.07;nan
48862;BME280;34681;49.188;-0.374;2022-12-16T05:33:43;101181.72;;;3.16;nan
48862;BME280;34681;49.188;-0.374;2022-12-16T05:36:27;101187.03;;;3.18;nan
48862;BME280;34681;49.188;-0.374;2022-12-16T05:39:11;101187.03;;;3.18;nan
48862;BME280;34681;49.188;-0.374;2022-12-16T05:41:55;101191.22;;;3.23;nan
48862;BME280;34681;49.188;-0.374;2022-12-16T05:44:39;101195.34;;;3.15;nan
48862;BME280;34681;49.188;-0.374;2022-12-16T05:47:23;101183.38;;;3.19;nan
48862;BME280;34681;49.188;-0.374;2022-12-16T05:50:08;101192.19;;;3.06;nan
48862;BME280;34681;49.188;-0.374;2022-12-16T05:52:54;101197.75;;;3.03;nan
48862;BME280;34681;49.188;-0.374;2022-12-16T05:55:38;101195.59;;;2.94;nan
48862;BME280;34681;49.188;-0.374;2022-12-16T05:58:22;101200.13;;;2.94;nan
48862;BME280;34681;49.188;-0.374;2022-12-16T06:01:07;101206.50;;;2.93;nan
48862;BME280;34681;49.188;-0.374;2022-12-16T06:03:51;101211.81;;;2.94;nan
48862;BME280;34681;49.188;-0.374;2022-12-16T06:06:35;101215.72;;;2.89;nan
48862;BME280;34681;49.188;-0.374;2022-12-16T06:09:19;101225.41;;;2.77;nan
48862;BME280;34681;49.188;-0.374;2022-12-16T06:12:03;101224.97;;;2.85;nan
48862;BME280;34681;49.188;-0.374;2022-12-16T06:14:46;101225.59;;;2.90;nan
48862;BME280;34681;49.188;-0.374;2022-12-16T06:17:31;101225.59;;;2.90;nan
48862;BME280;34681;49.188;-0.374;2022-12-16T06:20:15;101220.34;;;2.87;nan
48862;BME280;34681;49.188;-0.374;2022-12-16T06:22:59;101226.47;;;2.90;nan
48862;BME280;34681;49.188;-0.374;2022-12-16T06:25:43;101231.69;;;2.93;nan
48862;BME280;34681;49.188;-0.374;2022-12-16T06:28:27;101233.72;;;2.90;nan
48862;BME280;34681;49.188;-0.374;2022-12-16T06:31:10;101233.97;;;3.01;nan
48862;BME280;34681;49.188;-0.374;2022-12-16T06:33:54;101236.66;;;3.01;nan
48862;BME280;34681;49.188;-0.374;2022-12-16T06:36:40;101237.78;;;2.97;nan
48862;BME280;34681;49.188;-0.374;2022-12-16T06:39:24;101237.72;;;2.98;nan
48862;BME280;34681;49.188;-0.374;2022-12-16T06:42:08;101233.34;;;2.96;nan
48862;BME280;34681;49.188;-0.374;2022-12-16T06:44:51;101232.03;;;2.87;nan
48862;BME280;34681;49.188;-0.374;2022-12-16T06:47:37;101231.88;;;2.90;nan
48862;BME280;34681;49.188;-0.374;2022-12-16T06:50:21;101230.28;;;2.86;nan
48862;BME280;34681;49.188;-0.374;2022-12-16T06:53:05;101236.84;;;2.82;nan
48862;BME280;34681;49.188;-0.374;2022-12-16T06:55:49;101236.84;;;2.82;nan
48862;BME280;34681;49.188;-0.374;2022-12-16T06:58:33;101244.84;;;2.84;nan
48862;BME280;34681;49.188;-0.374;2022-12-16T07:01:24;101248.53;;;2.83;nan
48862;BME280;34681;49.188;-0.374;2022-12-16T07:04:08;101255.75;;;2.82;nan
48862;BME280;34681;49.188;-0.374;2022-12-16T07:06:52;101262.91;;;2.83;nan
48862;BME280;34681;49.188;-0.374;2022-12-16T07:09:36;101265.44;;;2.86;nan
48862;BME280;34681;49.188;-0.374;2022-12-16T07:12:20;101263.16;;;2.78;nan
48862;BME280;34681;49.188;-0.374;2022-12-16T07:15:05;101269.50;;;2.77;nan
48862;BME280;34681;49.188;-0.374;2022-12-16T07:17:49;101275.25;;;2.71;nan
48862;BME280;34681;49.188;-0.374;2022-12-16T07:20:33;101273.13;;;2.61;nan
48862;BME280;34681;49.188;-0.374;2022-12-16T07:23:17;101279.31;;;2.63;nan
48862;BME280;34681;49.188;-0.374;2022-12-16T07:26:21;101290.50;;;2.72;nan
48862;BME280;34681;49.188;-0.374;2022-12-16T07:29:05;101290.94;;;2.80;nan
48862;BME280;34681;49.188;-0.374;2022-12-16T07:31:49;101294.06;;;2.90;nan
48862;BME280;34681;49.188;-0.374;2022-12-16T07:34:36;101301.47;;;3.02;nan
48862;BME280;34681;49.188;-0.374;2022-12-16T07:37:20;101295.88;;;3.05;nan
48862;BME280;34681;49.188;-0.374;2022-12-16T07:40:04;101305.13;;;3.01;nan
48862;BME280;34681;49.188;-0.374;2022-12-16T07:42:48;101306.44;;;3.10;nan
48862;BME280;34681;49.188;-0.374;2022-12-16T07:45:32;101310.28;;;3.06;nan
48862;BME280;34681;49.188;-0.374;2022-12-16T07:48:17;101323.28;;;2.99;nan
48862;BME280;34681;49.188;-0.374;2022-12-16T07:51:00;101315.53;;;3.09;nan
48862;BME280;34681;49.188;-0.374;2022-12-16T07:53:45;101327.84;;;3.15;nan
48862;BME280;34681;49.188;-0.374;2022-12-16T07:56:28;101326.78;;;3.17;nan
48862;BME280;34681;49.188;-0.374;2022-12-16T07:59:13;101330.19;;;3.21;nan
48862;BME280;34681;49.188;-0.374;2022-12-16T08:01:57;101336.47;;;3.21;nan
48862;BME280;34681;49.188;-0.374;2022-12-16T08:04:41;101347.91;;;3.26;nan
48862;BME280;34681;49.188;-0.374;2022-12-16T08:07:25;101344.00;;;3.32;nan
48862;BME280;34681;49.188;-0.374;2022-12-16T08:10:09;101358.22;;;3.35;nan
48862;BME280;34681;49.188;-0.374;2022-12-16T08:13:03;101353.69;;;3.36;nan
48862;BME280;34681;49.188;-0.374;2022-12-16T08:15:47;101357.16;;;3.38;nan
48862;BME280;34681;49.188;-0.374;2022-12-16T08:18:31;101358.41;;;3.48;nan
48862;BME280;34681;49.188;-0.374;2022-12-16T08:21:16;101347.06;;;3.42;nan
48862;BME280;34681;49.188;-0.374;2022-12-16T08:24:00;101368.84;;;3.38;nan
48862;BME280;34681;49.188;-0.374;2022-12-16T08:26:44;101376.53;;;3.30;nan
48862;BME280;34681;49.188;-0.374;2022-12-16T08:29:28;101369.22;;;3.32;nan
48862;BME280;34681;49.188;-0.374;2022-12-16T08:32:13;101379.91;;;3.18;nan
48862;BME280;34681;49.188;-0.374;2022-12-16T08:34:57;101387.94;;;2.87;nan
48862;BME280;34681;49.188;-0.374;2022-12-16T08:37:41;101385.59;;;2.96;nan
48862;BME280;34681;49.188;-0.374;2022-12-16T08:40:25;101395.56;;;3.45;nan
48862;BME280;34681;49.188;-0.374;2022-12-16T08:43:09;101389.75;;;3.68;nan
48862;BME280;34681;49.188;-0.374;2022-12-16T08:45:53;101393.31;;;3.84;nan
48862;BME280;34681;49.188;-0.374;2022-12-16T08:48:38;101401.78;;;3.94;nan
48862;BME280;34681;49.188;-0.374;2022-12-16T08:51:22;101400.38;;;4.03;nan
48862;BME280;34681;49.188;-0.374;2022-12-16T08:54:06;101394.63;;;4.09;nan
48862;BME280;34681;49.188;-0.374;2022-12-16T08:56:50;101401.88;;;4.08;nan
48862;BME280;34681;49.188;-0.374;2022-12-16T08:59:34;101399.94;;;3.94;nan
48862;BME280;34681;49.188;-0.374;2022-12-16T09:02:18;101404.84;;;3.88;nan
48862;BME280;34681;49.188;-0.374;2022-12-16T09:05:02;101411.84;;;3.92;nan
48862;BME280;34681;49.188;-0.374;2022-12-16T09:07:46;101417.34;;;4.06;nan
48862;BME280;34681;49.188;-0.374;2022-12-16T09:10:30;101411.41;;;4.00;nan
48862;BME280;34681;49.188;-0.374;2022-12-16T09:13:14;101420.66;;;3.80;nan
48862;BME280;34681;49.188;-0.374;2022-12-16T09:15:59;101427.47;;;4.03;nan
48862;BME280;34681;49.188;-0.374;2022-12-16T09:18:57;101446.59;;;4.00;nan
48862;BME280;34681;49.188;-0.374;2022-12-16T09:21:41;101443.38;;;4.09;nan
48862;BME280;34681;49.188;-0.374;2022-12-16T09:24:25;101441.72;;;4.22;nan
48862;BME280;34681;49.188;-0.374;2022-12-16T09:27:09;101459.50;;;4.26;nan
48862;BME280;34681;49.188;-0.374;2022-12-16T09:29:53;101461.28;;;4.11;nan
48862;BME280;34681;49.188;-0.374;2022-12-16T09:32:41;101458.78;;;4.38;nan
48862;BME280;34681;49.188;-0.374;2022-12-16T09:35:25;101467.84;;;4.53;nan
48862;BME280;34681;49.188;-0.374;2022-12-16T09:38:09;101461.59;;;4.37;nan
48862;BME280;34681;49.188;-0.374;2022-12-16T09:40:53;101469.16;;;4.16;nan
48862;BME280;34681;49.188;-0.374;2022-12-16T09:44:04;101472.97;;;4.12;nan
48862;BME280;34681;49.188;-0.374;2022-12-16T09:47:06;101466.25;;;4.19;nan
48862;BME280;34681;49.188;-0.374;2022-12-16T09:49:53;101472.44;;;4.21;nan
48862;BME280;34681;49.188;-0.374;2022-12-16T09:53:06;101486.41;;;4.29;nan
48862;BME280;34681;49.188;-0.374;2022-12-16T09:55:53;101486.84;;;4.37;nan
48862;BME280;34681;49.188;-0.374;2022-12-16T09:58:50;101477.28;;;4.62;nan
48862;BME280;34681;49.188;-0.374;2022-12-16T10:01:37;101475.41;;;4.48;nan
48862;BME280;34681;49.188;-0.374;2022-12-16T10:04:23;101476.00;;;4.53;nan
48862;BME280;34681;49.188;-0.374;2022-12-16T10:07:14;101486.28;;;4.62;nan
48862;BME280;34681;49.188;-0.374;2022-12-16T10:10:10;101484.88;;;4.71;nan
48862;BME280;34681;49.188;-0.374;2022-12-16T10:13:06;101493.25;;;4.82;nan
48862;BME280;34681;49.188;-0.374;2022-12-16T10:24:54;101484.94;;;4.55;nan
48862;BME280;34681;49.188;-0.374;2022-12-16T10:27:46;101489.28;;;4.58;nan
48862;BME280;34681;49.188;-0.374;2022-12-16T10:30:34;101498.00;;;4.63;nan
48862;BME280;34681;49.188;-0.374;2022-12-16T10:33:20;101498.53;;;4.54;nan
48862;BME280;34681;49.188;-0.374;2022-12-16T10:36:11;101502.09;;;4.70;nan
48862;BME280;34681;49.188;-0.374;2022-12-16T10:39:01;101500.19;;;4.72;nan
48862;BME280;34681;49.188;-0.374;2022-12-16T10:41:51;101503.91;;;4.55;nan
48862;BME280;34681;49.188;-0.374;2022-12-16T10:44:57;101504.47;;;4.76;nan
48862;BME280;34681;49.188;-0.374;2022-12-16T10:47:42;101509.16;;;4.88;nan
48862;BME280;34681;49.188;-0.374;2022-12-16T10:50:26;101501.06;;;4.72;nan
48862;BME280;34681;49.188;-0.374;2022-12-16T10:53:24;101501.56;;;4.79;nan
48862;BME280;34681;49.188;-0.374;2022-12-16T10:59:06;101499.88;;;4.92;nan
48862;BME280;34681;49.188;-0.374;2022-12-16T11:02:00;101507.31;;;4.89;nan
48862;BME280;34681;49.188;-0.374;2022-12-16T11:04:45;101500.94;;;4.90;nan
48862;BME280;34681;49.188;-0.374;2022-12-16T11:13:19;101514.72;;;5.01;nan
48862;BME280;34681;49.188;-0.374;2022-12-16T11:16:07;101516.34;;;5.03;nan
48862;BME280;34681;49.188;-0.374;2022-12-16T11:18:51;101509.78;;;5.07;nan
48862;BME280;34681;49.188;-0.374;2022-12-16T11:21:35;101515.22;;;5.07;nan
48862;BME280;34681;49.188;-0.374;2022-12-16T11:24:20;101513.16;;;5.41;nan
48862;BME280;34681;49.188;-0.374;2022-12-16T11:27:24;101517.09;;;5.35;nan
48862;BME280;34681;49.188;-0.374;2022-12-16T11:33:09;101516.66;;;5.86;nan
48862;BME280;34681;49.188;-0.374;2022-12-16T11:36:02;101517.88;;;5.96;nan
48862;BME280;34681;49.188;-0.374;2022-12-16T11:38:49;101513.84;;;6.02;nan
48862;BME280;34681;49.188;-0.374;2022-12-16T11:41:44;101512.00;;;6.02;nan
48862;BME280;34681;49.188;-0.374;2022-12-16T11:44:40;101508.53;;;6.00;nan
48862;BME280;34681;49.188;-0.374;2022-12-16T11:50:23;101506.47;;;6.04;nan
48862;BME280;34681;49.188;-0.374;2022-12-16T11:56:19;101512.09;;;6.15;nan
48862;BME280;34681;49.188;-0.374;2022-12-16T11:59:10;101509.56;;;6.53;nan
48862;BME280;34681;49.188;-0.374;2022-12-16T12:02:01;101515.25;;;6.90;nan
48862;BME280;34681;49.188;-0.374;2022-12-16T12:04:49;101514.22;;;7.05;nan
48862;BME280;34681;49.188;-0.374;2022-12-16T12:13:45;101517.69;;;6.67;nan
48862;BME280;34681;49.188;-0.374;2022-12-16T12:22:45;101521.16;;;6.42;nan
48862;BME280;34681;49.188;-0.374;2022-12-16T12:25:46;101513.44;;;6.22;nan
48862;BME280;34681;49.188;-0.374;2022-12-16T12:32:30;101515.81;;;6.41;nan
48862;BME280;34681;49.188;-0.374;2022-12-16T12:38:42;101517.53;;;6.15;nan
48862;BME280;34681;49.188;-0.374;2022-12-16T12:45:00;101517.44;;;6.02;nan
48862;BME280;34681;49.188;-0.374;2022-12-16T12:48:03;101515.31;;;6.22;nan
48862;BME280;34681;49.188;-0.374;2022-12-16T12:57:17;101517.53;;;6.29;nan
48862;BME280;34681;49.188;-0.374;2022-12-16T13:00:11;101518.41;;;6.30;nan
48862;BME280;34681;49.188;-0.374;2022-12-16T13:05:58;101528.50;;;6.13;nan
48862;BME280;34681;49.188;-0.374;2022-12-16T13:11:31;101530.81;;;6.61;nan
48862;BME280;34681;49.188;-0.374;2022-12-16T13:17:19;101525.34;;;6.34;nan
48862;BME280;34681;49.188;-0.374;2022-12-16T13:20:32;101524.34;;;6.49;nan
48862;BME280;34681;49.188;-0.374;2022-12-16T13:26:14;101522.22;;;6.13;nan
48862;BME280;34681;49.188;-0.374;2022-12-16T13:37:52;101526.19;;;6.22;nan
48862;BME280;34681;49.188;-0.374;2022-12-16T13:43:56;101533.22;;;6.38;nan
48862;BME280;34681;49.188;-0.374;2022-12-16T13:46:51;101533.50;;;6.48;nan
48862;BME280;34681;49.188;-0.374;2022-12-16T14:01:13;101541.91;;;5.88;nan
48862;BME280;34681;49.188;-0.374;2022-12-16T14:03:59;101541.22;;;6.13;nan
48862;BME280;34681;49.188;-0.374;2022-12-16T14:06:43;101542.97;;;6.14;nan
48862;BME280;34681;49.188;-0.374;2022-12-16T14:09:36;101534.41;;;6.20;nan
48862;BME280;34681;49.188;-0.374;2022-12-16T14:21:59;101537.22;;;6.33;nan
48862;BME280;34681;49.188;-0.374;2022-12-16T14:24:46;101546.50;;;6.29;nan
48862;BME280;34681;49.188;-0.374;2022-12-16T14:27:31;101543.84;;;6.56;nan
48862;BME280;34681;49.188;-0.374;2022-12-16T14:30:23;101554.13;;;6.65;nan
48862;BME280;34681;49.188;-0.374;2022-12-16T14:33:23;101553.59;;;6.45;nan
48862;BME280;34681;49.188;-0.374;2022-12-16T14:36:26;101563.63;;;6.31;nan
48862;BME280;34681;49.188;-0.374;2022-12-16T14:39:13;101566.41;;;6.43;nan
48862;BME280;34681;49.188;-0.374;2022-12-16T14:42:03;101576.38;;;6.84;nan
48862;BME280;34681;49.188;-0.374;2022-12-16T14:44:47;101577.97;;;6.47;nan
48862;BME280;34681;49.188;-0.374;2022-12-16T14:47:31;101581.13;;;6.54;nan
48862;BME280;34681;49.188;-0.374;2022-12-16T14:50:25;101585.16;;;6.75;nan
48862;BME280;34681;49.188;-0.374;2022-12-16T14:53:19;101589.22;;;6.55;nan
48862;BME280;34681;49.188;-0.374;2022-12-16T14:56:17;101601.47;;;6.48;nan
48862;BME280;34681;49.188;-0.374;2022-12-16T14:59:13;101601.41;;;6.21;nan
48862;BME280;34681;49.188;-0.374;2022-12-16T15:01:59;101591.09;;;6.12;nan
48862;BME280;34681;49.188;-0.374;2022-12-16T15:05:01;101608.75;;;6.19;nan
48862;BME280;34681;49.188;-0.374;2022-12-16T15:07:45;101601.56;;;6.18;nan
48862;BME280;34681;49.188;-0.374;2022-12-16T15:10:29;101601.47;;;6.19;nan
48862;BME280;34681;49.188;-0.374;2022-12-16T15:13:16;101607.00;;;6.18;nan
48862;BME280;34681;49.188;-0.374;2022-12-16T15:16:02;101608.78;;;6.05;nan
48862;BME280;34681;49.188;-0.374;2022-12-16T15:18:56;101608.91;;;5.87;nan
48862;BME280;34681;49.188;-0.374;2022-12-16T15:21:42;101617.84;;;5.89;nan
48862;BME280;34681;49.188;-0.374;2022-12-16T15:24:36;101617.78;;;6.19;nan
48862;BME280;34681;49.188;-0.374;2022-12-16T15:30:37;101628.47;;;5.78;nan
48862;BME280;34681;49.188;-0.374;2022-12-16T15:33:33;101629.09;;;5.83;nan
48862;BME280;34681;49.188;-0.374;2022-12-16T15:36:28;101638.06;;;5.70;nan
48862;BME280;34681;49.188;-0.374;2022-12-16T15:42:03;101636.88;;;5.59;nan
48862;BME280;34681;49.188;-0.374;2022-12-16T15:44:49;101638.53;;;5.62;nan
48862;BME280;34681;49.188;-0.374;2022-12-16T15:47:36;101642.72;;;5.68;nan
48862;BME280;34681;49.188;-0.374;2022-12-16T15:50:23;101632.84;;;5.67;nan
48862;BME280;34681;49.188;-0.374;2022-12-16T15:53:29;101636.00;;;5.89;nan
48862;BME280;34681;49.188;-0.374;2022-12-16T15:56:24;101645.44;;;5.98;nan
48862;BME280;34681;49.188;-0.374;2022-12-16T15:59:30;101649.50;;;5.90;nan
48862;BME280;34681;49.188;-0.374;2022-12-16T16:02:23;101660.16;;;5.94;nan
48862;BME280;34681;49.188;-0.374;2022-12-16T16:05:13;101665.03;;;6.03;nan
48862;BME280;34681;49.188;-0.374;2022-12-16T16:07:58;101669.41;;;6.05;nan
48862;BME280;34681;49.188;-0.374;2022-12-16T16:10:43;101664.69;;;6.23;nan
48862;BME280;34681;49.188;-0.374;2022-12-16T16:13:27;101664.38;;;6.13;nan
48862;BME280;34681;49.188;-0.374;2022-12-16T16:16:12;101662.25;;;6.04;nan
48862;BME280;34681;49.188;-0.374;2022-12-16T16:18:56;101671.03;;;5.94;nan
48862;BME280;34681;49.188;-0.374;2022-12-16T16:21:40;101676.34;;;5.81;nan
48862;BME280;34681;49.188;-0.374;2022-12-16T16:24:24;101683.50;;;5.82;nan
48862;BME280;34681;49.188;-0.374;2022-12-16T16:27:11;101679.41;;;5.75;nan
48862;BME280;34681;49.188;-0.374;2022-12-16T16:29:57;101686.66;;;5.44;nan
48862;BME280;34681;49.188;-0.374;2022-12-16T16:32:42;101687.56;;;5.75;nan
48862;BME280;34681;49.188;-0.374;2022-12-16T16:35:25;101688.56;;;5.88;nan
48862;BME280;34681;49.188;-0.374;2022-12-16T16:38:10;101687.44;;;5.92;nan
48862;BME280;34681;49.188;-0.374;2022-12-16T16:40:54;101695.91;;;5.72;nan
48862;BME280;34681;49.188;-0.374;2022-12-16T16:43:39;101689.28;;;5.46;nan
48862;BME280;34681;49.188;-0.374;2022-12-16T16:49:11;101703.06;;;5.27;nan